createdAt,value
2023-09-02T00:00:43.000Z,30.612903225806633
2023-09-02T00:01:45.000Z,30.516129032258245
2023-09-02T00:02:47.000Z,30.516129032258245
2023-09-02T00:03:49.000Z,30.516129032258245
2023-09-02T00:04:52.000Z,30.516129032258245
2023-09-02T00:05:54.000Z,30.516129032258245
2023-09-02T00:06:56.000Z,30.516129032258245
2023-09-02T00:07:58.000Z,30.516129032258245
2023-09-02T00:09:00.000Z,30.612903225806633
2023-09-02T00:10:02.000Z,30.516129032258245
2023-09-02T00:11:04.000Z,30.516129032258245
2023-09-02T00:12:07.000Z,30.516129032258245
2023-09-02T00:13:09.000Z,30.612903225806633
2023-09-02T00:14:11.000Z,30.516129032258245
2023-09-02T00:15:13.000Z,30.612903225806633
2023-09-02T00:16:15.000Z,30.516129032258245
2023-09-02T00:17:17.000Z,30.612903225806633
2023-09-02T00:18:19.000Z,30.612903225806633
2023-09-02T00:19:22.000Z,30.612903225806633
2023-09-02T00:20:24.000Z,30.612903225806633
2023-09-02T00:21:26.000Z,30.612903225806633
2023-09-02T00:22:28.000Z,30.612903225806633
2023-09-02T00:23:30.000Z,30.612903225806633
2023-09-02T00:24:32.000Z,30.612903225806633
2023-09-02T00:25:34.000Z,30.612903225806633
2023-09-02T00:26:36.000Z,30.612903225806633
2023-09-02T00:27:39.000Z,30.612903225806633
2023-09-02T00:28:41.000Z,30.612903225806633
2023-09-02T00:29:43.000Z,30.612903225806633
2023-09-02T00:30:45.000Z,30.612903225806633
2023-09-02T00:31:47.000Z,30.70967741935502
2023-09-02T00:32:49.000Z,30.612903225806633
2023-09-02T00:33:51.000Z,30.612903225806633
2023-09-02T00:34:54.000Z,30.70967741935502
2023-09-02T00:35:56.000Z,30.70967741935502
2023-09-02T00:36:58.000Z,30.612903225806633
2023-09-02T00:38:00.000Z,30.612903225806633
2023-09-02T00:39:02.000Z,30.612903225806633
2023-09-02T00:40:04.000Z,30.612903225806633
2023-09-02T00:41:07.000Z,30.612903225806633
2023-09-02T00:42:09.000Z,30.70967741935502
2023-09-02T00:43:11.000Z,30.70967741935502
2023-09-02T00:44:13.000Z,30.70967741935502
2023-09-02T00:45:15.000Z,30.612903225806633
2023-09-02T00:46:17.000Z,30.70967741935502
2023-09-02T00:47:19.000Z,30.612903225806633
2023-09-02T00:48:21.000Z,30.70967741935502
2023-09-02T00:49:23.000Z,30.612903225806633
2023-09-02T00:50:26.000Z,30.612903225806633
2023-09-02T00:51:28.000Z,30.612903225806633
2023-09-02T00:52:30.000Z,30.612903225806633
2023-09-02T00:53:32.000Z,30.70967741935502
2023-09-02T00:54:34.000Z,30.612903225806633
2023-09-02T00:55:36.000Z,30.612903225806633
2023-09-02T00:56:38.000Z,30.612903225806633
2023-09-02T00:57:40.000Z,30.612903225806633
2023-09-02T00:58:43.000Z,30.612903225806633
2023-09-02T00:59:45.000Z,30.612903225806633
2023-09-02T01:00:47.000Z,30.612903225806633
2023-09-02T01:01:49.000Z,30.612903225806633
2023-09-02T01:02:51.000Z,30.612903225806633
2023-09-02T01:03:53.000Z,30.612903225806633
2023-09-02T01:04:55.000Z,30.612903225806633
2023-09-02T01:05:58.000Z,30.516129032258245
2023-09-02T01:07:00.000Z,30.612903225806633
2023-09-02T01:08:02.000Z,30.612903225806633
2023-09-02T01:09:04.000Z,30.516129032258245
2023-09-02T01:10:06.000Z,30.612903225806633
2023-09-02T01:11:08.000Z,30.516129032258245
2023-09-02T01:12:10.000Z,30.516129032258245
2023-09-02T01:13:12.000Z,30.32258064516147
2023-09-02T01:14:15.000Z,30.516129032258245
2023-09-02T01:15:17.000Z,30.516129032258245
2023-09-02T01:16:19.000Z,30.516129032258245
2023-09-02T01:17:21.000Z,30.612903225806633
2023-09-02T01:18:23.000Z,30.612903225806633
2023-09-02T01:19:25.000Z,30.516129032258245
2023-09-02T01:20:27.000Z,30.612903225806633
2023-09-02T01:21:29.000Z,30.516129032258245
2023-09-02T01:22:32.000Z,30.612903225806633
2023-09-02T01:23:34.000Z,30.516129032258245
2023-09-02T01:24:36.000Z,30.516129032258245
2023-09-02T01:25:38.000Z,30.516129032258245
2023-09-02T01:26:40.000Z,30.612903225806633
2023-09-02T01:27:42.000Z,30.612903225806633
2023-09-02T01:28:44.000Z,30.516129032258245
2023-09-02T01:29:47.000Z,30.516129032258245
2023-09-02T01:30:49.000Z,30.612903225806633
2023-09-02T01:31:51.000Z,30.612903225806633
2023-09-02T01:32:53.000Z,30.612903225806633
2023-09-02T01:33:55.000Z,30.612903225806633
2023-09-02T01:34:57.000Z,30.612903225806633
2023-09-02T01:35:59.000Z,30.612903225806633
2023-09-02T01:37:01.000Z,30.612903225806633
2023-09-02T01:38:04.000Z,30.612903225806633
2023-09-02T01:39:06.000Z,30.612903225806633
2023-09-02T01:40:08.000Z,30.612903225806633
2023-09-02T01:41:10.000Z,30.612903225806633
2023-09-02T01:42:12.000Z,30.612903225806633
2023-09-02T01:43:14.000Z,30.612903225806633
2023-09-02T01:44:16.000Z,30.612903225806633
2023-09-02T01:45:19.000Z,30.70967741935502
2023-09-02T01:46:21.000Z,30.612903225806633
2023-09-02T01:47:23.000Z,30.612903225806633
2023-09-02T01:48:25.000Z,30.612903225806633
2023-09-02T01:49:27.000Z,30.612903225806633
2023-09-02T01:50:29.000Z,30.612903225806633
2023-09-02T01:51:31.000Z,30.612903225806633
2023-09-02T01:52:34.000Z,30.612903225806633
2023-09-02T01:53:36.000Z,30.70967741935502
2023-09-02T01:54:38.000Z,30.612903225806633
2023-09-02T01:55:40.000Z,30.612903225806633
2023-09-02T01:56:42.000Z,30.612903225806633
2023-09-02T01:57:44.000Z,30.612903225806633
2023-09-02T01:58:46.000Z,30.612903225806633
2023-09-02T01:59:49.000Z,30.516129032258245
2023-09-02T02:00:51.000Z,30.612903225806633
2023-09-02T02:01:53.000Z,30.612903225806633
2023-09-02T02:02:55.000Z,30.612903225806633
2023-09-02T02:03:57.000Z,30.612903225806633
2023-09-02T02:04:59.000Z,30.612903225806633
2023-09-02T02:06:01.000Z,30.612903225806633
2023-09-02T02:07:04.000Z,30.612903225806633
2023-09-02T02:08:06.000Z,30.612903225806633
2023-09-02T02:09:08.000Z,30.612903225806633
2023-09-02T02:10:10.000Z,30.516129032258245
2023-09-02T02:11:12.000Z,30.516129032258245
2023-09-02T02:12:14.000Z,30.516129032258245
2023-09-02T02:13:16.000Z,30.612903225806633
2023-09-02T02:14:18.000Z,30.516129032258245
2023-09-02T02:15:21.000Z,30.612903225806633
2023-09-02T02:16:23.000Z,30.516129032258245
2023-09-02T02:17:25.000Z,30.612903225806633
2023-09-02T02:18:27.000Z,30.516129032258245
2023-09-02T02:19:29.000Z,30.516129032258245
2023-09-02T02:20:31.000Z,30.612903225806633
2023-09-02T02:21:33.000Z,30.516129032258245
2023-09-02T02:22:36.000Z,30.516129032258245
2023-09-02T02:23:38.000Z,30.516129032258245
2023-09-02T02:24:40.000Z,30.612903225806633
2023-09-02T02:25:42.000Z,30.516129032258245
2023-09-02T02:26:44.000Z,30.516129032258245
2023-09-02T02:27:46.000Z,30.516129032258245
2023-09-02T02:28:48.000Z,30.516129032258245
2023-09-02T02:29:50.000Z,30.516129032258245
2023-09-02T02:30:53.000Z,30.516129032258245
2023-09-02T02:31:55.000Z,30.516129032258245
2023-09-02T02:32:57.000Z,30.516129032258245
2023-09-02T02:33:59.000Z,30.516129032258245
2023-09-02T02:35:01.000Z,30.516129032258245
2023-09-02T02:36:03.000Z,30.516129032258245
2023-09-02T02:37:05.000Z,30.516129032258245
2023-09-02T02:38:07.000Z,30.516129032258245
2023-09-02T02:39:10.000Z,30.516129032258245
2023-09-02T02:40:12.000Z,30.516129032258245
2023-09-02T02:41:14.000Z,30.516129032258245
2023-09-02T02:42:16.000Z,30.419354838709857
2023-09-02T02:43:18.000Z,30.516129032258245
2023-09-02T02:44:20.000Z,30.516129032258245
2023-09-02T02:45:22.000Z,30.419354838709857
2023-09-02T02:46:24.000Z,30.419354838709857
2023-09-02T02:47:27.000Z,30.419354838709857
2023-09-02T02:48:29.000Z,30.516129032258245
2023-09-02T02:49:31.000Z,30.516129032258245
2023-09-02T02:50:33.000Z,30.419354838709857
2023-09-02T02:51:35.000Z,30.516129032258245
2023-09-02T02:52:37.000Z,30.419354838709857
2023-09-02T02:53:39.000Z,30.419354838709857
2023-09-02T02:54:41.000Z,30.516129032258245
2023-09-02T02:55:44.000Z,30.516129032258245
2023-09-02T02:56:46.000Z,30.516129032258245
2023-09-02T02:57:48.000Z,30.516129032258245
2023-09-02T02:58:50.000Z,30.419354838709857
2023-09-02T02:59:52.000Z,30.516129032258245
2023-09-02T03:00:54.000Z,30.516129032258245
2023-09-02T03:01:56.000Z,30.516129032258245
2023-09-02T03:02:59.000Z,30.516129032258245
2023-09-02T03:04:01.000Z,30.419354838709857
2023-09-02T03:05:03.000Z,30.516129032258245
2023-09-02T03:06:05.000Z,30.516129032258245
2023-09-02T03:07:07.000Z,30.516129032258245
2023-09-02T03:08:09.000Z,30.516129032258245
2023-09-02T03:09:11.000Z,30.419354838709857
2023-09-02T03:10:14.000Z,30.419354838709857
2023-09-02T03:11:16.000Z,30.419354838709857
2023-09-02T03:12:18.000Z,30.516129032258245
2023-09-02T03:13:20.000Z,30.516129032258245
2023-09-02T03:14:22.000Z,30.516129032258245
2023-09-02T03:15:24.000Z,30.516129032258245
2023-09-02T03:16:26.000Z,30.516129032258245
2023-09-02T03:17:28.000Z,30.516129032258245
2023-09-02T03:18:31.000Z,30.516129032258245
2023-09-02T03:19:33.000Z,30.516129032258245
2023-09-02T03:20:35.000Z,30.516129032258245
2023-09-02T03:21:37.000Z,30.419354838709857
2023-09-02T03:22:39.000Z,30.516129032258245
2023-09-02T03:23:41.000Z,30.516129032258245
2023-09-02T03:24:43.000Z,30.516129032258245
2023-09-02T03:25:45.000Z,30.516129032258245
2023-09-02T03:26:48.000Z,30.419354838709857
2023-09-02T03:27:50.000Z,30.419354838709857
2023-09-02T03:28:52.000Z,30.516129032258245
2023-09-02T03:29:54.000Z,30.419354838709857
2023-09-02T03:30:56.000Z,30.516129032258245
2023-09-02T03:31:58.000Z,30.516129032258245
2023-09-02T03:33:00.000Z,30.516129032258245
2023-09-02T03:34:02.000Z,30.516129032258245
2023-09-02T03:35:05.000Z,30.516129032258245
2023-09-02T03:36:07.000Z,30.612903225806633
2023-09-02T03:37:09.000Z,30.516129032258245
2023-09-02T03:38:11.000Z,30.516129032258245
2023-09-02T03:39:13.000Z,30.516129032258245
2023-09-02T03:40:15.000Z,30.516129032258245
2023-09-02T03:41:17.000Z,30.516129032258245
2023-09-02T03:42:20.000Z,30.516129032258245
2023-09-02T03:43:22.000Z,30.516129032258245
2023-09-02T03:44:24.000Z,30.516129032258245
2023-09-02T03:45:26.000Z,30.516129032258245
2023-09-02T03:46:28.000Z,30.516129032258245
2023-09-02T03:47:30.000Z,30.516129032258245
2023-09-02T03:48:32.000Z,30.419354838709857
2023-09-02T03:49:34.000Z,30.516129032258245
2023-09-02T03:50:37.000Z,30.516129032258245
2023-09-02T03:51:39.000Z,30.516129032258245
2023-09-02T03:52:41.000Z,30.419354838709857
2023-09-02T03:53:43.000Z,30.419354838709857
2023-09-02T03:54:45.000Z,30.516129032258245
2023-09-02T03:55:47.000Z,30.516129032258245
2023-09-02T03:56:49.000Z,30.516129032258245
2023-09-02T03:57:52.000Z,30.516129032258245
2023-09-02T03:58:54.000Z,30.516129032258245
2023-09-02T03:59:56.000Z,30.516129032258245
2023-09-02T04:00:58.000Z,30.516129032258245
2023-09-02T04:02:00.000Z,30.516129032258245
2023-09-02T04:03:02.000Z,30.516129032258245
2023-09-02T04:04:04.000Z,30.516129032258245
2023-09-02T04:05:06.000Z,30.516129032258245
2023-09-02T04:06:09.000Z,30.516129032258245
2023-09-02T04:07:11.000Z,30.516129032258245
2023-09-02T04:08:13.000Z,30.419354838709857
2023-09-02T04:09:15.000Z,30.516129032258245
2023-09-02T04:10:17.000Z,30.516129032258245
2023-09-02T04:11:19.000Z,30.612903225806633
2023-09-02T04:12:21.000Z,30.612903225806633
2023-09-02T04:13:24.000Z,30.612903225806633
2023-09-02T04:14:26.000Z,30.70967741935502
2023-09-02T04:15:28.000Z,30.612903225806633
2023-09-02T04:16:30.000Z,30.612903225806633
2023-09-02T04:17:32.000Z,30.612903225806633
2023-09-02T04:18:34.000Z,30.516129032258245
2023-09-02T04:19:36.000Z,30.612903225806633
2023-09-02T04:20:39.000Z,30.612903225806633
2023-09-02T04:21:41.000Z,30.516129032258245
2023-09-02T04:22:43.000Z,30.516129032258245
2023-09-02T04:23:45.000Z,30.612903225806633
2023-09-02T04:24:47.000Z,30.612903225806633
2023-09-02T04:25:49.000Z,30.516129032258245
2023-09-02T04:26:51.000Z,30.516129032258245
2023-09-02T04:27:53.000Z,30.516129032258245
2023-09-02T04:28:56.000Z,30.612903225806633
2023-09-02T04:29:58.000Z,30.612903225806633
2023-09-02T04:31:00.000Z,30.516129032258245
2023-09-02T04:32:02.000Z,30.516129032258245
2023-09-02T04:33:04.000Z,30.516129032258245
2023-09-02T04:34:06.000Z,30.516129032258245
2023-09-02T04:35:08.000Z,30.516129032258245
2023-09-02T04:36:11.000Z,30.516129032258245
2023-09-02T04:37:13.000Z,30.516129032258245
2023-09-02T04:38:15.000Z,30.32258064516147
2023-09-02T04:39:17.000Z,30.32258064516147
2023-09-02T04:40:19.000Z,30.32258064516147
2023-09-02T04:41:21.000Z,30.32258064516147
2023-09-02T04:42:23.000Z,30.32258064516147
2023-09-02T04:43:26.000Z,30.32258064516147
2023-09-02T04:44:28.000Z,30.32258064516147
2023-09-02T04:45:30.000Z,30.419354838709857
2023-09-02T04:46:32.000Z,30.419354838709857
2023-09-02T04:47:34.000Z,30.419354838709857
2023-09-02T04:48:36.000Z,30.32258064516147
2023-09-02T04:49:38.000Z,30.32258064516147
2023-09-02T04:50:40.000Z,30.419354838709857
2023-09-02T04:51:43.000Z,30.419354838709857
2023-09-02T04:52:45.000Z,30.419354838709857
2023-09-02T04:53:47.000Z,30.516129032258245
2023-09-02T04:54:49.000Z,30.516129032258245
2023-09-02T04:55:51.000Z,30.612903225806633
2023-09-02T04:56:53.000Z,30.516129032258245
2023-09-02T04:57:55.000Z,30.516129032258245
2023-09-02T04:58:57.000Z,30.516129032258245
2023-09-02T05:00:00.000Z,30.516129032258245
2023-09-02T05:01:02.000Z,30.516129032258245
2023-09-02T05:02:04.000Z,30.516129032258245
2023-09-02T05:03:06.000Z,30.516129032258245
2023-09-02T05:04:08.000Z,30.516129032258245
2023-09-02T05:05:10.000Z,30.516129032258245
2023-09-02T05:06:13.000Z,30.516129032258245
2023-09-02T05:07:15.000Z,30.516129032258245
2023-09-02T05:08:17.000Z,30.516129032258245
2023-09-02T05:09:19.000Z,30.419354838709857
2023-09-02T05:10:21.000Z,30.516129032258245
2023-09-02T05:11:23.000Z,30.612903225806633
2023-09-02T05:12:25.000Z,30.516129032258245
2023-09-02T05:13:27.000Z,30.612903225806633
2023-09-02T05:14:30.000Z,30.516129032258245
2023-09-02T05:15:32.000Z,30.516129032258245
2023-09-02T05:16:34.000Z,30.516129032258245
2023-09-02T05:17:36.000Z,30.516129032258245
2023-09-02T05:18:38.000Z,30.516129032258245
2023-09-02T05:19:40.000Z,30.612903225806633
2023-09-02T05:20:42.000Z,30.612903225806633
2023-09-02T05:21:44.000Z,30.516129032258245
2023-09-02T05:22:47.000Z,30.516129032258245
2023-09-02T05:23:49.000Z,30.612903225806633
2023-09-02T05:24:51.000Z,30.516129032258245
2023-09-02T05:25:53.000Z,30.612903225806633
2023-09-02T05:26:55.000Z,30.612903225806633
2023-09-02T05:27:57.000Z,30.516129032258245
2023-09-02T05:28:59.000Z,30.516129032258245
2023-09-02T05:30:01.000Z,30.516129032258245
2023-09-02T05:31:04.000Z,30.516129032258245
2023-09-02T05:32:06.000Z,30.32258064516147
2023-09-02T05:33:08.000Z,30.516129032258245
2023-09-02T05:34:10.000Z,30.419354838709857
2023-09-02T05:35:12.000Z,28.677419354838875
2023-09-02T05:36:14.000Z,28.774193548387263
2023-09-02T05:37:16.000Z,28.87096774193565
2023-09-02T05:38:19.000Z,28.774193548387263
2023-09-02T05:39:21.000Z,28.774193548387263
2023-09-02T05:40:23.000Z,28.87096774193565
2023-09-02T05:41:25.000Z,28.87096774193565
2023-09-02T05:42:27.000Z,28.87096774193565
2023-09-02T05:43:29.000Z,28.87096774193565
2023-09-02T05:44:31.000Z,28.87096774193565
2023-09-02T05:45:33.000Z,28.87096774193565
2023-09-02T05:46:35.000Z,28.87096774193565
2023-09-02T05:47:38.000Z,28.87096774193565
2023-09-02T05:48:40.000Z,28.87096774193565
2023-09-02T05:49:42.000Z,28.87096774193565
2023-09-02T05:50:44.000Z,28.96774193548404
2023-09-02T05:51:46.000Z,28.87096774193565
2023-09-02T05:52:48.000Z,28.96774193548404
2023-09-02T05:53:50.000Z,28.96774193548404
2023-09-02T05:54:53.000Z,28.96774193548404
2023-09-02T05:55:55.000Z,28.96774193548404
2023-09-02T05:56:57.000Z,28.96774193548404
2023-09-02T05:57:59.000Z,28.96774193548404
2023-09-02T05:59:01.000Z,28.96774193548404
2023-09-02T06:00:03.000Z,28.96774193548404
2023-09-02T06:01:05.000Z,28.96774193548404
2023-09-02T06:02:08.000Z,29.064516129032427
2023-09-02T06:03:10.000Z,28.96774193548404
2023-09-02T06:04:12.000Z,28.96774193548404
2023-09-02T06:05:14.000Z,28.96774193548404
2023-09-02T06:06:16.000Z,28.96774193548404
2023-09-02T06:07:18.000Z,28.96774193548404
2023-09-02T06:08:20.000Z,28.96774193548404
2023-09-02T06:09:22.000Z,29.064516129032427
2023-09-02T06:10:25.000Z,28.96774193548404
2023-09-02T06:11:27.000Z,28.96774193548404
2023-09-02T06:12:29.000Z,28.87096774193565
2023-09-02T06:13:31.000Z,28.96774193548404
2023-09-02T06:14:33.000Z,28.96774193548404
2023-09-02T06:15:35.000Z,29.064516129032427
2023-09-02T06:16:37.000Z,29.064516129032427
2023-09-02T06:17:40.000Z,29.064516129032427
2023-09-02T06:18:42.000Z,29.064516129032427
2023-09-02T06:19:44.000Z,29.064516129032427
2023-09-02T06:20:46.000Z,29.064516129032427
2023-09-02T06:21:48.000Z,29.064516129032427
2023-09-02T06:22:50.000Z,29.161290322580815
2023-09-02T06:23:52.000Z,29.064516129032427
2023-09-02T06:24:54.000Z,29.064516129032427
2023-09-02T06:25:57.000Z,29.064516129032427
2023-09-02T06:26:59.000Z,29.064516129032427
2023-09-02T06:28:01.000Z,29.161290322580815
2023-09-02T06:29:03.000Z,29.064516129032427
2023-09-02T06:30:05.000Z,29.161290322580815
2023-09-02T06:31:07.000Z,29.064516129032427
2023-09-02T06:32:09.000Z,29.064516129032427
2023-09-02T06:33:11.000Z,29.064516129032427
2023-09-02T06:34:14.000Z,29.064516129032427
2023-09-02T06:35:16.000Z,29.064516129032427
2023-09-02T06:36:18.000Z,29.064516129032427
2023-09-02T06:37:20.000Z,29.064516129032427
2023-09-02T06:38:22.000Z,29.064516129032427
2023-09-02T06:39:24.000Z,29.064516129032427
2023-09-02T06:40:26.000Z,29.35483870967759
2023-09-02T06:41:29.000Z,29.064516129032427
2023-09-02T06:42:31.000Z,29.161290322580815
2023-09-02T06:43:33.000Z,29.161290322580815
2023-09-02T06:44:35.000Z,29.161290322580815
2023-09-02T06:45:37.000Z,29.161290322580815
2023-09-02T06:46:39.000Z,29.064516129032427
2023-09-02T06:47:41.000Z,29.161290322580815
2023-09-02T06:48:43.000Z,29.161290322580815
2023-09-02T06:49:46.000Z,29.064516129032427
2023-09-02T06:50:48.000Z,29.064516129032427
2023-09-02T06:51:50.000Z,29.161290322580815
2023-09-02T06:52:52.000Z,29.064516129032427
2023-09-02T06:53:54.000Z,29.161290322580815
2023-09-02T06:54:56.000Z,29.064516129032427
2023-09-02T06:55:59.000Z,29.161290322580815
2023-09-02T06:57:01.000Z,28.87096774193565
2023-09-02T06:58:03.000Z,29.064516129032427
2023-09-02T06:59:05.000Z,29.064516129032427
2023-09-02T07:00:07.000Z,29.064516129032427
2023-09-02T07:01:09.000Z,29.064516129032427
2023-09-02T07:02:12.000Z,29.161290322580815
2023-09-02T07:03:14.000Z,29.161290322580815
2023-09-02T07:04:16.000Z,29.161290322580815
2023-09-02T07:05:18.000Z,29.258064516129203
2023-09-02T07:06:20.000Z,29.258064516129203
2023-09-02T07:07:22.000Z,29.161290322580815
2023-09-02T07:08:24.000Z,29.161290322580815
2023-09-02T07:09:26.000Z,29.161290322580815
2023-09-02T07:10:29.000Z,29.258064516129203
2023-09-02T07:11:31.000Z,29.258064516129203
2023-09-02T07:12:33.000Z,29.258064516129203
2023-09-02T07:13:35.000Z,29.161290322580815
2023-09-02T07:14:37.000Z,29.258064516129203
2023-09-02T07:15:39.000Z,29.161290322580815
2023-09-02T07:16:41.000Z,29.161290322580815
2023-09-02T07:17:44.000Z,29.161290322580815
2023-09-02T07:18:46.000Z,29.258064516129203
2023-09-02T07:19:48.000Z,29.258064516129203
2023-09-02T07:20:50.000Z,29.258064516129203
2023-09-02T07:21:52.000Z,29.258064516129203
2023-09-02T07:22:54.000Z,29.35483870967759
2023-09-02T07:23:56.000Z,29.35483870967759
2023-09-02T07:24:59.000Z,29.258064516129203
2023-09-02T07:26:01.000Z,29.258064516129203
2023-09-02T07:27:03.000Z,29.258064516129203
2023-09-02T07:28:05.000Z,29.258064516129203
2023-09-02T07:29:07.000Z,29.258064516129203
2023-09-02T07:30:09.000Z,29.35483870967759
2023-09-02T07:31:11.000Z,29.258064516129203
2023-09-02T07:32:13.000Z,29.258064516129203
2023-09-02T07:33:16.000Z,29.35483870967759
2023-09-02T07:34:18.000Z,29.35483870967759
2023-09-02T07:35:20.000Z,29.35483870967759
2023-09-02T07:36:22.000Z,29.35483870967759
2023-09-02T07:37:24.000Z,29.258064516129203
2023-09-02T07:38:26.000Z,29.258064516129203
2023-09-02T07:39:28.000Z,29.258064516129203
2023-09-02T07:40:31.000Z,29.35483870967759
2023-09-02T07:41:33.000Z,29.35483870967759
2023-09-02T07:42:35.000Z,29.258064516129203
2023-09-02T07:43:37.000Z,29.35483870967759
2023-09-02T07:44:39.000Z,29.258064516129203
2023-09-02T07:45:41.000Z,29.35483870967759
2023-09-02T07:46:43.000Z,29.35483870967759
2023-09-02T07:47:45.000Z,29.258064516129203
2023-09-02T07:48:48.000Z,29.35483870967759
2023-09-02T07:49:50.000Z,29.35483870967759
2023-09-02T07:50:52.000Z,29.35483870967759
2023-09-02T07:51:54.000Z,29.35483870967759
2023-09-02T07:52:56.000Z,29.35483870967759
2023-09-02T07:53:58.000Z,29.35483870967759
2023-09-02T07:55:00.000Z,29.35483870967759
2023-09-02T07:56:03.000Z,29.645161290322754
2023-09-02T07:57:05.000Z,29.645161290322754
2023-09-02T07:58:07.000Z,29.645161290322754
2023-09-02T07:59:09.000Z,29.741935483871142
2023-09-02T08:00:11.000Z,29.645161290322754
2023-09-02T08:01:13.000Z,29.645161290322754
2023-09-02T08:02:15.000Z,29.645161290322754
2023-09-02T08:03:18.000Z,29.645161290322754
2023-09-02T08:04:20.000Z,29.645161290322754
2023-09-02T08:05:22.000Z,29.741935483871142
2023-09-02T08:06:24.000Z,29.645161290322754
2023-09-02T08:07:26.000Z,29.645161290322754
2023-09-02T08:08:28.000Z,29.645161290322754
2023-09-02T08:09:30.000Z,29.645161290322754
2023-09-02T08:10:32.000Z,29.741935483871142
2023-09-02T08:11:35.000Z,29.741935483871142
2023-09-02T08:12:37.000Z,29.741935483871142
2023-09-02T08:13:39.000Z,29.741935483871142
2023-09-02T08:14:41.000Z,29.645161290322754
2023-09-02T08:15:43.000Z,29.548387096774366
2023-09-02T08:16:45.000Z,29.741935483871142
2023-09-02T08:17:47.000Z,29.741935483871142
2023-09-02T08:18:49.000Z,29.741935483871142
2023-09-02T08:19:52.000Z,29.741935483871142
2023-09-02T08:20:54.000Z,29.741935483871142
2023-09-02T08:21:56.000Z,29.83870967741953
2023-09-02T08:22:58.000Z,29.741935483871142
2023-09-02T08:24:00.000Z,29.645161290322754
2023-09-02T08:25:02.000Z,29.741935483871142
2023-09-02T08:26:05.000Z,29.741935483871142
2023-09-02T08:27:07.000Z,29.741935483871142
2023-09-02T08:28:09.000Z,29.741935483871142
2023-09-02T08:29:11.000Z,29.83870967741953
2023-09-02T08:30:13.000Z,29.741935483871142
2023-09-02T08:31:15.000Z,29.741935483871142
2023-09-02T08:32:17.000Z,29.741935483871142
2023-09-02T08:33:19.000Z,29.645161290322754
2023-09-02T08:34:22.000Z,29.645161290322754
2023-09-02T08:35:24.000Z,29.741935483871142
2023-09-02T08:36:26.000Z,29.645161290322754
2023-09-02T08:37:28.000Z,29.645161290322754
2023-09-02T08:38:30.000Z,29.741935483871142
2023-09-02T08:39:32.000Z,29.645161290322754
2023-09-02T08:40:34.000Z,29.645161290322754
2023-09-02T08:41:37.000Z,29.645161290322754
2023-09-02T08:42:39.000Z,29.645161290322754
2023-09-02T08:43:41.000Z,29.645161290322754
2023-09-02T08:44:43.000Z,29.645161290322754
2023-09-02T08:45:45.000Z,29.741935483871142
2023-09-02T08:46:47.000Z,29.741935483871142
2023-09-02T08:47:49.000Z,29.741935483871142
2023-09-02T08:48:52.000Z,29.645161290322754
2023-09-02T08:49:54.000Z,29.645161290322754
2023-09-02T08:50:56.000Z,29.741935483871142
2023-09-02T08:51:58.000Z,29.645161290322754
2023-09-02T08:53:00.000Z,29.645161290322754
2023-09-02T08:54:02.000Z,29.741935483871142
2023-09-02T08:55:04.000Z,29.741935483871142
2023-09-02T08:56:06.000Z,29.741935483871142
2023-09-02T08:57:09.000Z,29.741935483871142
2023-09-02T08:58:11.000Z,29.741935483871142
2023-09-02T08:59:13.000Z,29.741935483871142
2023-09-02T09:00:15.000Z,29.741935483871142
2023-09-02T09:01:17.000Z,29.741935483871142
2023-09-02T09:02:19.000Z,29.741935483871142
2023-09-02T09:03:21.000Z,29.645161290322754
2023-09-02T09:04:24.000Z,29.741935483871142
2023-09-02T09:05:26.000Z,29.741935483871142
2023-09-02T09:06:28.000Z,29.741935483871142
2023-09-02T09:07:30.000Z,29.741935483871142
2023-09-02T09:08:32.000Z,29.645161290322754
2023-09-02T09:09:34.000Z,29.741935483871142
2023-09-02T09:10:36.000Z,29.741935483871142
2023-09-02T09:11:39.000Z,29.741935483871142
2023-09-02T09:12:41.000Z,29.741935483871142
2023-09-02T09:13:43.000Z,29.741935483871142
2023-09-02T09:14:45.000Z,29.741935483871142
2023-09-02T09:15:47.000Z,29.741935483871142
2023-09-02T09:16:49.000Z,29.741935483871142
2023-09-02T09:17:51.000Z,29.741935483871142
2023-09-02T09:18:53.000Z,29.741935483871142
2023-09-02T09:19:56.000Z,29.741935483871142
2023-09-02T09:20:58.000Z,29.741935483871142
2023-09-02T09:22:00.000Z,29.83870967741953
2023-09-02T09:23:02.000Z,29.741935483871142
2023-09-02T09:24:04.000Z,29.741935483871142
2023-09-02T09:25:06.000Z,29.741935483871142